Mazatlan, SIN, Mexico
Current Conditions -  °F | °C
As of 10:47 AM on Thursday 27 Nov 2014 (Local Time) from MMMZ Reporting Station
Few Clouds Few Clouds  
Wind Chill: 79°   Ceiling: Unl
Heat Index: 79°   Visibility: 15mi
Dew Point: 48°   Wind: 9mph
Humidity: 34%   Direction: 280°W
Pressure: 29.96"   Gusts: NA
Location:  23.22°N, 106.42°W
Report Text: MMMZ 271747Z 28008KT 15SM FEW230 26/09 A2996 RMK SLP142 57007 963 8/005
Loading
Personal Weather Stations






























Interactive Weather Map New forecast layout! Learn more

10-Day Weather Forecast

Advertisements
Track Severe Weather on mobile